Time;durP1;ratioP1;P1;durP2;ratioP2;P2;SDS_P1;SDS_P2;PMS_P1;PMS_P2;Temp;Humidity;BMP_temperature;BMP_pressure;BME280_temperature;BME280_humidity;BME280_pressure;Samples;Min_cycle;Max_cycle;Signal;HPM_P1;HPM_P2
2023/09/01 00:04:01;;;;;;;5.13;2.70;;;;;;;14.38;70.44;100154.59;5079218;28;20219;-61
2023/09/01 00:06:29;;;;;;;2.60;2.40;;;;;;;14.35;69.66;100151.22;5082916;28;20204;-60
2023/09/01 00:08:57;;;;;;;3.83;3.07;;;;;;;14.33;70.55;100159.06;5091071;28;20201;-60
2023/09/01 00:11:25;;;;;;;3.63;2.40;;;;;;;14.32;69.96;100146.97;5097195;28;20236;-60
2023/09/01 00:13:53;;;;;;;2.50;2.30;;;;;;;14.31;69.79;100150.44;5091419;28;20201;-61
2023/09/01 00:16:21;;;;;;;2.97;2.37;;;;;;;14.32;69.16;100152.16;5078225;28;20308;-61
2023/09/01 00:18:50;;;;;;;2.57;2.37;;;;;;;14.31;69.00;100155.63;5086074;28;20232;-60
2023/09/01 00:21:19;;;;;;;2.37;2.07;;;;;;;14.30;69.86;100151.34;5084984;28;20613;-61
2023/09/01 00:23:47;;;;;;;2.50;2.30;;;;;;;14.27;69.70;100151.41;5090535;28;20678;-61
2023/09/01 00:26:15;;;;;;;2.60;2.20;;;;;;;14.24;69.15;100149.75;5091569;28;20243;-61
2023/09/01 00:28:43;;;;;;;4.00;2.20;;;;;;;14.23;69.24;100149.81;5088625;28;20196;-60
2023/09/01 00:31:11;;;;;;;2.90;2.50;;;;;;;14.19;69.60;100150.75;5076906;28;20210;-61
2023/09/01 00:33:40;;;;;;;7.00;2.63;;;;;;;14.19;70.08;100150.75;5080185;28;20656;-60
2023/09/01 00:36:08;;;;;;;4.03;2.57;;;;;;;14.18;69.86;100155.09;5080190;28;20798;-61
2023/09/01 00:38:37;;;;;;;3.37;2.60;;;;;;;14.18;69.68;100154.25;5077636;28;20205;-67
2023/09/01 00:41:07;;;;;;;2.53;2.33;;;;;;;14.17;70.11;100155.97;5078425;28;20262;-64
2023/09/01 00:43:35;;;;;;;2.60;2.27;;;;;;;14.15;69.12;100159.50;5081488;28;20247;-61
2023/09/01 00:46:03;;;;;;;3.53;2.73;;;;;;;14.14;69.68;100157.78;5078569;28;20217;-60
2023/09/01 00:48:32;;;;;;;4.07;2.60;;;;;;;14.14;69.09;100160.38;5079837;28;20212;-61
2023/09/01 00:51:00;;;;;;;4.00;2.63;;;;;;;14.12;69.71;100157.00;5081071;28;20541;-60
2023/09/01 00:53:29;;;;;;;2.90;2.40;;;;;;;14.11;69.34;100152.69;5084690;28;20303;-60
2023/09/01 00:55:59;;;;;;;3.47;2.23;;;;;;;14.09;69.46;100157.91;5077886;28;20687;-60
2023/09/01 00:58:27;;;;;;;3.23;2.50;;;;;;;14.08;70.47;100157.94;5083438;28;20204;-61
2023/09/01 01:00:58;;;;;;;3.90;2.57;;;;;;;14.04;69.81;100157.16;5096832;28;20742;-59
2023/09/01 01:03:27;;;;;;;5.17;2.77;;;;;;;14.04;70.51;100159.75;5090895;28;20211;-59
2023/09/01 01:06:10;;;;;;;2.80;2.47;;;;;;;14.01;70.12;100158.09;5081368;28;20249;-62
2023/09/01 01:08:45;;;;;;;4.73;3.00;;;;;;;13.97;70.98;100158.22;5085808;28;20204;-59
2023/09/01 01:11:24;;;;;;;3.77;2.63;;;;;;;13.93;70.79;100162.59;5086196;28;20749;-60
2023/09/01 01:13:56;;;;;;;2.40;2.20;;;;;;;13.90;70.73;100165.25;5083604;28;20216;-61
2023/09/01 01:16:27;;;;;;;2.80;2.50;;;;;;;13.89;70.68;100160.13;5086764;28;20205;-60
2023/09/01 01:19:00;;;;;;;2.97;2.50;;;;;;;13.88;70.09;100163.59;5083389;28;20257;-60
2023/09/01 01:21:34;;;;;;;3.10;2.40;;;;;;;13.86;70.21;100163.63;5079053;28;20251;-62
2023/09/01 01:24:05;;;;;;;3.10;2.50;;;;;;;13.85;69.54;100169.72;5081705;28;20683;-59
2023/09/01 01:26:33;;;;;;;2.87;2.57;;;;;;;13.84;69.24;100167.97;5077920;28;20663;-59
2023/09/01 01:29:01;;;;;;;3.70;2.40;;;;;;;13.81;69.18;100164.63;5075882;28;20224;-60
2023/09/01 01:31:29;;;;;;;3.67;2.50;;;;;;;13.79;69.94;100172.44;5078973;28;20561;-62
2023/09/01 01:34:05;;;;;;;7.53;3.13;;;;;;;13.77;70.66;100171.59;5080908;28;20211;-61
2023/09/01 01:36:39;;;;;;;4.13;2.80;;;;;;;13.76;70.78;100175.09;5079858;28;20200;-60
2023/09/01 01:39:14;;;;;;;3.10;2.80;;;;;;;13.72;70.06;100181.22;5078484;28;20201;-61
2023/09/01 01:41:52;;;;;;;5.00;2.63;;;;;;;13.68;70.46;100175.25;5081925;28;20231;-61
2023/09/01 01:44:25;;;;;;;3.57;2.90;;;;;;;13.66;70.57;100174.47;5083140;28;20217;-61
2023/09/01 01:46:53;;;;;;;4.50;2.50;;;;;;;13.64;71.28;100175.38;5088173;28;20709;-63
2023/09/01 01:49:21;;;;;;;3.67;2.77;;;;;;;13.57;70.49;100172.06;5083106;28;20234;-59
2023/09/01 01:51:50;;;;;;;3.13;2.70;;;;;;;13.53;70.47;100171.28;5086512;28;20284;-60
2023/09/01 01:54:19;;;;;;;3.80;2.60;;;;;;;13.52;71.27;100164.41;5086691;28;20224;-60
2023/09/01 01:56:47;;;;;;;4.23;3.07;;;;;;;13.52;71.53;100160.97;5085388;28;20236;-65
2023/09/01 01:59:16;;;;;;;6.27;2.57;;;;;;;13.49;71.69;100161.88;5083986;28;20888;-62
2023/09/01 02:01:44;;;;;;;3.60;2.77;;;;;;;13.45;72.15;100162.81;5085560;28;20295;-59
2023/09/01 02:04:13;;;;;;;4.07;2.80;;;;;;;13.44;72.04;100168.00;5086349;28;20205;-60
2023/09/01 02:06:41;;;;;;;3.10;2.80;;;;;;;13.42;71.29;100172.38;5085371;28;20209;-61
2023/09/01 02:09:09;;;;;;;3.73;2.80;;;;;;;13.39;71.95;100175.03;5087153;28;20205;-62
2023/09/01 02:11:39;;;;;;;3.20;2.67;;;;;;;13.39;71.51;100168.13;5085496;28;20667;-62
2023/09/01 02:14:07;;;;;;;4.00;2.70;;;;;;;13.38;72.29;100166.41;5083988;28;20257;-61
2023/09/01 02:16:35;;;;;;;8.30;3.20;;;;;;;13.37;71.57;100175.09;5083580;28;20232;-62
2023/09/01 02:19:04;;;;;;;3.37;2.40;;;;;;;13.38;72.38;100171.59;5087829;28;20311;-60
2023/09/01 02:21:32;;;;;;;3.07;2.37;;;;;;;13.38;71.50;100176.78;5087803;28;20790;-60
2023/09/01 02:24:00;;;;;;;4.40;2.50;;;;;;;13.37;72.25;100175.09;5084600;28;20205;-60
2023/09/01 02:26:29;;;;;;;2.87;2.30;;;;;;;13.37;72.02;100169.91;5093135;28;20263;-65
2023/09/01 02:28:59;;;;;;;2.63;2.10;;;;;;;13.34;71.88;100171.69;5086980;28;20688;-59
2023/09/01 02:31:27;;;;;;;2.83;2.50;;;;;;;13.32;71.95;100166.53;5093073;28;20213;-61
2023/09/01 02:33:55;;;;;;;2.37;2.17;;;;;;;13.29;71.82;100156.25;5088598;28;20295;-60
2023/09/01 02:36:26;;;;;;;3.20;2.60;;;;;;;13.30;71.77;100163.16;5091463;28;20595;-61
2023/09/01 02:38:54;;;;;;;2.80;2.43;;;;;;;13.32;71.70;100160.53;5083953;28;20200;-60
2023/09/01 02:41:23;;;;;;;2.47;2.27;;;;;;;13.35;71.12;100173.41;5084411;28;20252;-64
2023/09/01 02:43:53;;;;;;;3.50;2.77;;;;;;;13.37;71.46;100175.09;5086455;28;20646;-64
2023/09/01 02:46:22;;;;;;;5.13;2.60;;;;;;;13.41;71.20;100181.91;5086713;28;20212;-64
2023/09/01 02:48:50;;;;;;;4.20;2.80;;;;;;;13.38;70.91;100181.94;5085397;28;20540;-61
2023/09/01 02:51:19;;;;;;;3.83;2.43;;;;;;;13.36;71.39;100178.53;5085529;28;20232;-59
2023/09/01 02:53:47;;;;;;;3.17;2.40;;;;;;;13.31;71.86;100175.19;5080986;28;20682;-62
2023/09/01 02:56:17;;;;;;;3.53;2.70;;;;;;;13.29;71.77;100176.94;5084126;28;20231;-61
2023/09/01 02:58:45;;;;;;;6.40;2.90;;;;;;;13.26;71.98;100174.44;5082443;28;20718;-61
2023/09/01 03:01:13;;;;;;;2.87;2.60;;;;;;;13.27;72.34;100174.41;5081225;28;20617;-60
2023/09/01 03:03:43;;;;;;;3.27;2.70;;;;;;;13.28;71.92;100165.75;5081456;28;20201;-61
2023/09/01 03:06:11;;;;;;;4.17;2.60;;;;;;;13.31;71.90;100171.75;5081342;28;20221;-63
2023/09/01 03:08:39;;;;;;;2.77;2.33;;;;;;;13.30;71.41;100168.31;5083727;28;20678;-59
2023/09/01 03:11:08;;;;;;;4.30;2.70;;;;;;;13.30;71.98;100168.31;5083652;28;20540;-60
2023/09/01 03:13:36;;;;;;;4.60;2.27;;;;;;;13.34;70.84;100174.28;5081435;28;20209;-61
2023/09/01 03:16:04;;;;;;;6.37;2.10;;;;;;;13.33;71.22;100173.44;5083689;28;20652;-60
2023/09/01 03:18:32;;;;;;;3.53;2.83;;;;;;;13.33;71.32;100168.28;5081372;28;20196;-60
2023/09/01 03:21:11;;;;;;;4.83;2.80;;;;;;;13.36;71.03;100177.69;5080839;28;20204;-60
2023/09/01 03:23:39;;;;;;;2.93;2.50;;;;;;;13.36;70.77;100194.06;5082362;28;20577;-62
2023/09/01 03:26:07;;;;;;;3.60;2.30;;;;;;;13.34;70.93;100188.06;5084526;28;20308;-61
2023/09/01 03:28:35;;;;;;;3.73;2.47;;;;;;;13.34;70.00;100187.22;5078858;28;20209;-65
2023/09/01 03:31:09;;;;;;;3.67;2.30;;;;;;;13.34;70.40;100180.31;5083729;28;20291;-62
2023/09/01 03:33:38;;;;;;;3.07;2.50;;;;;;;13.35;70.74;100181.16;5082177;28;20237;-60
2023/09/01 03:36:07;;;;;;;4.53;2.43;;;;;;;13.32;71.14;100184.66;5082768;28;20744;-59
2023/09/01 03:38:37;;;;;;;2.67;2.13;;;;;;;13.32;71.42;100182.06;5081729;28;20218;-66
2023/09/01 03:41:06;;;;;;;4.80;2.40;;;;;;;13.32;70.44;100184.66;5081880;28;20233;-59
2023/09/01 03:43:34;;;;;;;4.87;2.67;;;;;;;13.32;70.49;100183.81;5083636;28;20701;-60
2023/09/01 03:46:03;;;;;;;4.03;2.20;;;;;;;13.29;70.54;100177.84;5081428;28;20266;-61
2023/09/01 03:48:32;;;;;;;4.33;2.37;;;;;;;13.33;71.07;100180.31;5081807;28;20204;-61
2023/09/01 03:51:07;;;;;;;3.47;2.27;;;;;;;13.26;70.58;100188.25;5077938;28;20633;-60
2023/09/01 03:53:37;;;;;;;2.60;2.40;;;;;;;13.31;70.48;100190.72;5082274;28;20201;-59
2023/09/01 03:56:08;;;;;;;2.50;2.30;;;;;;;13.31;70.56;100189.88;5082102;28;20242;-62
2023/09/01 03:58:37;;;;;;;4.27;2.53;;;;;;;13.30;70.68;100186.44;5082214;28;20209;-61
2023/09/01 04:01:11;;;;;;;3.87;2.20;;;;;;;13.30;71.11;100181.25;5080365;28;20295;-61
2023/09/01 04:03:41;;;;;;;5.20;2.40;;;;;;;13.29;71.15;100172.66;5081036;28;20202;-61
2023/09/01 04:06:10;;;;;;;3.27;2.33;;;;;;;13.33;71.22;100173.44;5079953;28;20309;-61
2023/09/01 04:08:40;;;;;;;3.33;2.57;;;;;;;13.29;71.12;100161.41;5081639;28;20246;-60
2023/09/01 04:11:08;;;;;;;2.77;2.50;;;;;;;13.38;70.94;100181.94;5082410;28;20196;-61
2023/09/01 04:13:37;;;;;;;5.03;2.27;;;;;;;13.42;70.64;100188.75;5083072;28;20192;-62
2023/09/01 04:16:05;;;;;;;4.97;3.00;;;;;;;13.43;70.71;100193.06;5080794;28;20240;-60
2023/09/01 04:18:33;;;;;;;5.80;2.80;;;;;;;13.43;71.23;100195.63;5081984;28;20198;-60
2023/09/01 04:21:02;;;;;;;4.93;2.70;;;;;;;13.46;71.17;100197.31;5083210;28;20643;-64
2023/09/01 04:23:31;;;;;;;2.40;2.20;;;;;;;13.48;70.45;100203.34;5082176;28;20259;-61
2023/09/01 04:26:02;;;;;;;4.10;2.17;;;;;;;13.48;70.30;100204.19;5083969;28;20688;-62
2023/09/01 04:28:31;;;;;;;2.63;2.43;;;;;;;13.49;71.09;100198.09;5079130;28;20205;-58
2023/09/01 04:31:00;;;;;;;4.40;2.70;;;;;;;13.53;70.74;100196.31;5079541;28;20209;-60
2023/09/01 04:33:31;;;;;;;2.83;2.30;;;;;;;13.58;70.94;100193.63;5081452;28;20201;-65
2023/09/01 04:36:00;;;;;;;2.80;2.10;;;;;;;13.62;70.08;100198.69;5082611;28;20204;-59
2023/09/01 04:38:29;;;;;;;2.50;2.30;;;;;;;13.65;69.86;100196.03;5082252;28;20201;-65
2023/09/01 04:40:58;;;;;;;6.27;3.00;;;;;;;13.67;70.71;100198.59;5076880;28;20259;-60
2023/09/01 04:43:28;;;;;;;2.50;2.30;;;;;;;13.67;69.77;100196.03;5079380;28;20208;-61
2023/09/01 04:45:57;;;;;;;3.17;2.57;;;;;;;13.67;70.41;100198.59;5085608;28;20304;-69
2023/09/01 04:48:26;;;;;;;3.03;2.37;;;;;;;13.70;71.12;100194.22;5081869;28;20208;-59
2023/09/01 04:50:54;;;;;;;3.90;2.20;;;;;;;13.74;69.99;100206.22;5083222;28;20200;-60
2023/09/01 04:53:24;;;;;;;2.57;2.37;;;;;;;13.81;70.13;100195.69;5080973;28;20236;-61
2023/09/01 04:55:51;;;;;;;2.50;2.30;;;;;;;13.83;70.63;100192.19;5080368;28;20208;-59
2023/09/01 04:58:20;;;;;;;2.67;2.20;;;;;;;13.86;69.03;100205.06;5081050;28;20655;-61
2023/09/01 05:00:51;;;;;;;3.40;2.10;;;;;;;13.84;70.17;100196.47;5078296;28;20205;-61
2023/09/01 05:03:19;;;;;;;2.87;2.50;;;;;;;13.89;70.21;100197.25;5078659;28;20215;-60
2023/09/01 05:05:49;;;;;;;3.00;2.67;;;;;;;14.04;69.82;100200.38;5079132;28;20299;-64
2023/09/01 05:08:17;;;;;;;2.63;2.30;;;;;;;14.20;69.38;100199.09;5083664;28;20201;-63
2023/09/01 05:10:46;;;;;;;2.87;2.10;;;;;;;14.30;68.77;100189.38;5077650;28;20563;-60
2023/09/01 05:13:14;;;;;;;5.20;2.40;;;;;;;14.46;68.83;100193.28;5084099;28;20228;-63
2023/09/01 05:15:42;;;;;;;2.23;1.93;;;;;;;14.58;66.65;100197.34;5077886;28;20197;-61
2023/09/01 05:18:12;;;;;;;2.90;2.20;;;;;;;14.63;66.37;100198.94;5081370;28;20907;-60
2023/09/01 05:20:40;;;;;;;2.87;2.27;;;;;;;14.66;65.91;100205.78;5082639;28;20289;-60
2023/09/01 05:23:09;;;;;;;5.90;2.40;;;;;;;14.67;67.10;100199.72;5085136;28;20668;-60
2023/09/01 05:25:37;;;;;;;3.70;2.20;;;;;;;14.63;66.08;100200.69;5088790;28;20208;-60
2023/09/01 05:28:05;;;;;;;4.33;2.30;;;;;;;14.67;67.18;100204.91;5086193;28;20683;-61
2023/09/01 05:30:36;;;;;;;8.23;2.50;;;;;;;14.67;66.97;100202.31;5086690;28;20200;-59
2023/09/01 05:33:05;;;;;;;7.17;2.57;;;;;;;14.66;66.96;100203.19;5084101;28;20197;-63
2023/09/01 05:35:36;;;;;;;4.33;1.83;;;;;;;14.62;67.22;100222.31;5085936;28;20641;-62
2023/09/01 05:38:04;;;;;;;2.17;1.97;;;;;;;14.62;65.78;100219.72;5089231;28;20200;-62
2023/09/01 05:40:32;;;;;;;2.13;1.60;;;;;;;14.57;66.41;100219.81;5084037;28;20744;-62
2023/09/01 05:43:00;;;;;;;3.33;2.57;;;;;;;14.58;66.88;100220.66;5089877;28;20609;-61
2023/09/01 05:45:28;;;;;;;5.30;2.20;;;;;;;14.61;66.22;100220.59;5085457;28;20744;-61
2023/09/01 05:47:57;;;;;;;6.03;2.10;;;;;;;14.59;67.00;100230.19;5087432;28;20220;-61
2023/09/01 05:50:25;;;;;;;4.67;1.83;;;;;;;14.61;65.55;100225.78;5084823;28;20669;-61
2023/09/01 05:52:55;;;;;;;4.80;2.23;;;;;;;14.65;67.03;100228.25;5083423;28;20203;-64
2023/09/01 05:55:24;;;;;;;3.50;2.50;;;;;;;14.72;66.08;100239.34;5087125;28;20205;-60
2023/09/01 05:57:52;;;;;;;2.00;1.80;;;;;;;14.72;65.51;100228.97;5087073;28;20208;-63
2023/09/01 06:00:20;;;;;;;3.53;1.90;;;;;;;14.78;66.49;100233.16;5097454;28;20228;-62
2023/09/01 06:02:48;;;;;;;2.30;1.63;;;;;;;14.82;65.02;100235.63;5083647;28;20209;-60
2023/09/01 06:05:16;;;;;;;4.90;1.90;;;;;;;14.90;65.11;100241.44;5084308;28;20720;-60
2023/09/01 06:07:44;;;;;;;2.43;1.93;;;;;;;14.98;65.19;100238.66;5087876;28;20216;-64
2023/09/01 06:10:15;;;;;;;1.87;1.63;;;;;;;15.09;65.30;100233.19;5086491;28;20204;-61
2023/09/01 06:12:43;;;;;;;3.63;1.90;;;;;;;15.37;65.20;100236.72;5093050;28;20257;-60
2023/09/01 06:15:12;;;;;;;2.80;2.13;;;;;;;16.71;64.46;100240.44;5091578;28;20491;-60
2023/09/01 06:17:40;;;;;;;3.23;1.87;;;;;;;18.15;56.10;100233.44;5090640;28;20225;-61
2023/09/01 06:20:14;;;;;;;4.63;1.55;;;;;;;19.12;52.95;100225.06;5089869;28;20230;-59
2023/09/01 06:22:47;;;;;;;1.65;1.42;;;;;;;19.81;49.11;100229.84;5083300;28;20201;-59
2023/09/01 06:25:17;;;;;;;1.73;1.60;;;;;;;20.42;48.29;100221.63;5082892;28;20228;-60
2023/09/01 06:27:45;;;;;;;3.88;1.83;;;;;;;21.30;47.18;100222.44;5090523;28;20621;-60
2023/09/01 06:30:13;;;;;;;4.85;1.58;;;;;;;22.36;45.14;100220.09;5088629;28;20205;-61
2023/09/01 06:32:41;;;;;;;3.47;1.65;;;;;;;23.31;41.29;100230.25;5093609;28;20631;-60
2023/09/01 06:35:10;;;;;;;2.35;1.40;;;;;;;23.76;39.00;100230.97;5096455;28;20204;-62
2023/09/01 06:37:38;;;;;;;2.70;1.38;;;;;;;24.31;38.30;100222.13;5084371;28;20215;-61
2023/09/01 06:40:07;;;;;;;2.10;1.02;;;;;;;25.28;36.90;100227.03;5092726;28;20250;-61
2023/09/01 06:42:36;;;;;;;3.72;1.20;;;;;;;26.01;33.95;100219.16;5094449;28;20200;-60
2023/09/01 06:45:05;;;;;;;3.00;1.33;;;;;;;26.57;34.24;100221.19;5093564;28;20708;-63
2023/09/01 06:47:33;;;;;;;1.85;1.17;;;;;;;27.07;32.13;100223.59;5091524;28;20224;-61
2023/09/01 06:50:02;;;;;;;1.70;1.10;;;;;;;27.74;31.46;100228.03;5090214;28;20296;-61
2023/09/01 06:52:30;;;;;;;2.60;1.27;;;;;;;28.45;30.56;100223.97;5091665;28;20675;-62
2023/09/01 06:54:58;;;;;;;2.10;1.17;;;;;;;29.13;29.53;100233.25;5092871;28;20200;-60
2023/09/01 06:57:26;;;;;;;2.60;1.33;;;;;;;29.86;28.03;100233.06;5089878;28;20566;-64
2023/09/01 06:59:55;;;;;;;1.90;1.13;;;;;;;30.19;27.32;100223.91;5087531;28;20288;-61
2023/09/01 07:02:23;;;;;;;1.92;1.10;;;;;;;30.66;26.06;100236.47;5085273;28;20204;-62
2023/09/01 07:04:51;;;;;;;1.70;1.23;;;;;;;31.27;25.58;100231.56;5087884;28;20193;-61
2023/09/01 07:07:19;;;;;;;2.08;1.40;;;;;;;31.58;25.80;100228.63;5091665;28;20827;-61
2023/09/01 07:09:47;;;;;;;1.88;1.40;;;;;;;31.44;24.32;100226.47;5085398;28;20286;-60
2023/09/01 07:12:16;;;;;;;2.50;1.65;;;;;;;31.22;25.10;100233.81;5092219;28;20193;-61
2023/09/01 07:14:44;;;;;;;1.98;1.10;;;;;;;30.65;25.09;100240.13;5084798;28;20228;-66
2023/09/01 07:17:14;;;;;;;2.50;1.17;;;;;;;30.32;25.79;100235.09;5087233;28;20197;-61
2023/09/01 07:19:42;;;;;;;1.20;1.10;;;;;;;30.63;25.84;100231.44;5075688;28;20228;-61
2023/09/01 07:22:10;;;;;;;4.78;1.17;;;;;;;31.41;25.24;100235.59;5087500;28;20632;-60
2023/09/01 07:24:38;;;;;;;1.48;1.23;;;;;;;32.36;24.16;100236.94;5088526;28;20213;-60
2023/09/01 07:27:07;;;;;;;2.03;1.10;;;;;;;31.81;24.09;100233.53;5085888;28;20205;-59
2023/09/01 07:29:35;;;;;;;2.10;1.20;;;;;;;31.62;23.28;100243.31;5087415;28;20309;-62
2023/09/01 07:32:04;;;;;;;1.58;0.93;;;;;;;31.95;23.53;100246.38;5084110;28;20556;-60
2023/09/01 07:34:34;;;;;;;1.30;1.13;;;;;;;32.10;22.46;100236.88;5081942;28;20208;-68
2023/09/01 07:37:03;;;;;;;1.40;1.10;;;;;;;32.49;22.99;100233.91;5092595;28;20632;-61
2023/09/01 07:39:31;;;;;;;8.15;1.20;;;;;;;33.04;22.01;100238.16;5097074;28;20257;-59
2023/09/01 07:41:59;;;;;;;1.13;1.00;;;;;;;33.40;21.58;100241.50;5103829;28;20205;-61
2023/09/01 07:44:27;;;;;;;2.20;1.10;;;;;;;33.00;21.00;100248.31;5106268;28;20204;-61
2023/09/01 07:46:55;;;;;;;2.63;1.08;;;;;;;32.03;22.57;100243.78;5089518;28;20889;-61
2023/09/01 07:49:25;;;;;;;1.17;0.70;;;;;;;31.36;22.85;100245.00;5081444;28;20215;-59
2023/09/01 07:51:54;;;;;;;1.08;0.90;;;;;;;31.17;23.17;100248.56;5079597;28;20270;-61
2023/09/01 07:54:23;;;;;;;3.08;1.13;;;;;;;31.25;22.49;100243.34;5087731;28;20680;-61
2023/09/01 07:56:51;;;;;;;1.25;1.00;;;;;;;31.90;22.59;100243.34;5080358;28;20257;-60
2023/09/01 07:59:19;;;;;;;1.20;0.90;;;;;;;32.71;22.70;100253.94;5086953;28;20723;-60
2023/09/01 08:01:47;;;;;;;1.77;1.10;;;;;;;33.60;20.67;100244.78;5091223;28;20235;-59
2023/09/01 08:04:15;;;;;;;5.10;1.13;;;;;;;33.15;20.76;100259.25;5089796;28;20574;-62
2023/09/01 08:06:43;;;;;;;1.90;1.10;;;;;;;31.88;21.51;100248.81;5086928;28;20204;-60
2023/09/01 08:09:13;;;;;;;2.17;0.90;;;;;;;31.79;22.48;100252.34;5081798;28;20213;-59
2023/09/01 08:11:41;;;;;;;1.33;0.82;;;;;;;31.21;23.05;100253.44;5088870;28;20196;-59
2023/09/01 08:14:09;;;;;;;2.42;1.10;;;;;;;31.33;22.81;100254.13;5088159;28;20545;-57
2023/09/01 08:16:37;;;;;;;5.35;1.27;;;;;;;32.20;22.29;100253.63;5088558;28;20214;-60
2023/09/01 08:19:06;;;;;;;2.63;0.90;;;;;;;32.35;21.55;100251.28;5085184;28;20196;-59
2023/09/01 08:21:34;;;;;;;1.42;0.80;;;;;;;32.13;21.67;100262.41;5093364;28;20200;-61
2023/09/01 08:24:02;;;;;;;1.35;0.80;;;;;;;32.15;21.95;100253.28;5097569;28;20648;-60
2023/09/01 08:26:34;;;;;;;1.15;0.73;;;;;;;32.21;21.03;100252.63;5087262;28;20208;-59
2023/09/01 08:29:04;;;;;;;1.60;0.70;;;;;;;31.89;21.72;100250.50;5092006;28;20647;-61
2023/09/01 08:31:32;;;;;;;1.40;0.70;;;;;;;31.31;23.12;100253.44;5090984;28;20614;-58
2023/09/01 08:34:00;;;;;;;0.70;0.70;;;;;;;30.95;22.29;100257.72;5092467;28;20731;-63
2023/09/01 08:36:29;;;;;;;1.15;0.70;;;;;;;31.28;22.35;100254.53;5090136;28;20251;-60
2023/09/01 08:38:57;;;;;;;1.73;0.70;;;;;;;31.53;22.00;100257.56;5088948;28;20656;-62
2023/09/01 08:41:25;;;;;;;1.80;0.68;;;;;;;32.27;21.67;100258.38;5088470;28;20255;-59
2023/09/01 08:44:02;;;;;;;1.48;0.57;;;;;;;32.59;21.10;100249.84;5087761;28;20247;-59
2023/09/01 08:46:32;;;;;;;1.80;0.82;;;;;;;33.11;20.28;100256.06;5091028;28;20605;-64
2023/09/01 08:49:02;;;;;;;2.13;0.75;;;;;;;33.09;19.67;100250.03;5092081;28;20221;-59
2023/09/01 08:51:30;;;;;;;2.15;0.98;;;;;;;32.71;20.65;100260.09;5087290;28;20225;-60
2023/09/01 08:54:00;;;;;;;3.13;1.02;;;;;;;31.00;22.28;100266.09;5090248;28;20776;-59
2023/09/01 08:56:30;;;;;;;1.88;0.60;;;;;;;30.11;22.61;100262.75;5095014;28;20192;-59
2023/09/01 08:59:00;;;;;;;1.30;0.88;;;;;;;29.42;24.22;100256.41;5092378;28;20193;-59
2023/09/01 09:01:30;;;;;;;1.63;0.88;;;;;;;29.53;24.79;100248.34;5094750;28;20197;-60
2023/09/01 09:04:00;;;;;;;2.60;1.20;;;;;;;30.29;23.47;100246.00;5086012;28;20204;-60
2023/09/01 09:06:33;;;;;;;1.42;0.77;;;;;;;30.90;22.76;100249.34;5093350;28;20236;-60
2023/09/01 09:09:06;;;;;;;0.80;0.70;;;;;;;31.84;21.92;100241.25;5090172;28;20611;-61
2023/09/01 09:11:35;;;;;;;5.13;1.73;;;;;;;32.37;20.72;100246.63;5089816;28;20614;-63
2023/09/01 09:14:04;;;;;;;3.80;0.70;;;;;;;31.65;21.15;100259.03;5091317;28;20226;-60
2023/09/01 09:16:51;;;;;;;1.95;1.00;;;;;;;30.91;22.40;100253.69;5093090;28;20611;-61
2023/09/01 09:19:20;;;;;;;1.10;0.82;;;;;;;30.32;23.59;100259.03;5093306;28;20852;-63
2023/09/01 09:21:48;;;;;;;2.83;1.50;;;;;;;30.02;23.92;100259.97;5093864;28;20648;-62
2023/09/01 09:24:34;;;;;;;1.35;0.93;;;;;;;29.92;24.00;100259.09;5091323;28;20197;-63
2023/09/01 09:27:05;;;;;;;0.80;0.70;;;;;;;28.72;25.91;100262.41;5089868;28;20283;-62
2023/09/01 09:29:42;;;;;;;1.17;0.80;;;;;;;28.35;26.06;100270.72;5084328;28;20714;-61
2023/09/01 09:32:17;;;;;;;2.28;0.77;;;;;;;27.87;26.40;100274.63;5093805;28;20195;-61
2023/09/01 09:35:05;;;;;;;3.20;2.90;;;;;;;27.53;27.47;100265.00;5094407;28;20270;-61
2023/09/01 09:37:33;;;;;;;1.75;0.90;;;;;;;27.32;27.41;100260.44;5088393;28;20216;-63
2023/09/01 09:40:14;;;;;;;2.20;1.00;;;;;;;27.12;27.59;100261.13;5085708;28;20232;-63
2023/09/01 09:42:43;;;;;;;3.28;1.10;;;;;;;27.04;27.94;100266.97;5087063;28;20204;-62
2023/09/01 09:45:31;;;;;;;1.50;0.52;;;;;;;27.07;28.71;100274.69;5084662;28;20243;-61
2023/09/01 09:48:01;;;;;;;1.35;0.82;;;;;;;26.94;29.06;100274.75;5082084;28;20269;-60
2023/09/01 09:50:30;;;;;;;1.58;0.75;;;;;;;26.79;28.79;100270.66;5078649;28;20263;-61
2023/09/01 09:53:00;;;;;;;2.17;0.80;;;;;;;26.87;28.90;100275.34;5091140;28;20232;-61
2023/09/01 09:55:29;;;;;;;1.42;0.90;;;;;;;27.13;28.31;100266.28;5090423;28;20233;-61
2023/09/01 09:58:06;;;;;;;1.38;1.00;;;;;;;27.29;28.33;100273.06;5087061;28;20204;-61
2023/09/01 10:00:41;;;;;;;1.80;0.95;;;;;;;27.37;28.25;100279.44;5087036;28;20283;-59
2023/09/01 10:03:10;;;;;;;0.80;0.80;;;;;;;27.38;28.11;100275.81;5091600;28;20563;-59
2023/09/01 10:05:39;;;;;;;3.40;1.08;;;;;;;26.99;27.90;100279.72;5092812;28;20232;-60
2023/09/01 10:08:10;;;;;;;1.67;1.05;;;;;;;26.48;29.33;100280.88;5089009;28;20204;-60
2023/09/01 10:10:39;;;;;;;1.08;0.80;;;;;;;26.74;28.99;100278.09;5091246;28;20220;-61
2023/09/01 10:13:08;;;;;;;1.92;0.70;;;;;;;26.93;28.60;100267.81;5093458;28;20561;-60
2023/09/01 10:15:38;;;;;;;1.75;1.00;;;;;;;27.44;28.13;100275.34;5090140;28;20200;-60
2023/09/01 10:18:08;;;;;;;1.58;0.70;;;;;;;27.91;26.24;100294.59;5082448;28;20575;-61
2023/09/01 10:20:40;;;;;;;1.38;0.80;;;;;;;27.86;26.25;100280.88;5091138;28;20201;-64
2023/09/01 10:23:09;;;;;;;2.63;1.00;;;;;;;28.07;26.56;100280.13;5092339;28;20197;-60
2023/09/01 10:25:37;;;;;;;2.70;0.88;;;;;;;27.59;27.03;100272.47;5091952;28;20196;-60
2023/09/01 10:28:07;;;;;;;2.03;1.05;;;;;;;27.41;28.17;100275.56;5094512;28;20600;-65
2023/09/01 10:30:39;;;;;;;1.88;0.90;;;;;;;27.84;27.75;100261.63;5094129;28;20216;-60
2023/09/01 10:33:08;;;;;;;1.52;1.08;;;;;;;28.51;26.71;100259.75;5094445;28;20578;-60
2023/09/01 10:35:47;;;;;;;1.65;1.00;;;;;;;28.78;25.65;100273.34;5094484;28;20211;-60
2023/09/01 10:38:18;;;;;;;1.45;0.88;;;;;;;27.77;26.61;100264.91;5094180;28;20207;-59
2023/09/01 10:40:48;;;;;;;1.17;0.90;;;;;;;27.17;27.88;100273.06;5091691;28;20235;-60
2023/09/01 10:43:52;;;;;;;1.00;0.90;;;;;;;26.33;28.44;100278.47;5094546;28;20682;-61
2023/09/01 10:46:28;;;;;;;3.55;1.08;;;;;;;25.70;29.66;100272.44;5035759;28;20204;-60
2023/09/01 10:48:58;;;;;;;3.22;1.05;;;;;;;25.02;31.45;100270.97;5093258;28;20203;-64
2023/09/01 10:51:28;;;;;;;1.75;1.10;;;;;;;24.94;31.25;100279.41;5094055;28;20201;-62
2023/09/01 10:53:59;;;;;;;1.60;0.90;;;;;;;25.06;30.73;100273.31;5093636;28;20201;-60
2023/09/01 10:56:28;;;;;;;1.15;0.90;;;;;;;24.74;31.28;100287.81;5084546;28;20287;-61
2023/09/01 10:58:57;;;;;;;1.95;1.00;;;;;;;24.14;31.69;100277.69;5093707;28;20944;-61
2023/09/01 11:01:34;;;;;;;1.05;0.88;;;;;;;23.41;33.00;100283.09;5094100;28;20686;-61
2023/09/01 11:04:33;;;;;;;4.00;1.08;;;;;;;23.23;34.75;100279.81;5079781;28;20565;-61
2023/09/01 11:07:06;;;;;;;1.95;1.02;;;;;;;23.74;34.15;100273.16;5091905;28;20245;-60
2023/09/01 11:09:56;;;;;;;2.55;0.88;;;;;;;24.38;32.71;100270.84;5093173;28;20296;-60
2023/09/01 11:12:31;;;;;;;2.55;0.95;;;;;;;24.02;32.74;100279.31;5092386;28;20611;-60
2023/09/01 11:15:05;;;;;;;1.15;0.73;;;;;;;23.46;33.79;100274.00;5091403;28;20201;-60
2023/09/01 11:17:47;;;;;;;0.80;0.70;;;;;;;23.15;33.97;100267.13;5099106;28;20208;-61
2023/09/01 11:20:19;;;;;;;1.55;1.10;;;;;;;23.29;34.05;100269.75;5093313;28;20199;-61
2023/09/01 11:22:48;;;;;;;2.95;0.90;;;;;;;23.60;33.23;100276.63;5102847;28;20603;-60
2023/09/01 11:25:18;;;;;;;1.23;1.00;;;;;;;23.77;32.14;100266.84;5091987;28;20611;-60
2023/09/01 11:27:47;;;;;;;3.03;0.80;;;;;;;23.93;32.54;100272.84;5090369;28;20208;-60
2023/09/01 11:30:17;;;;;;;4.35;0.93;;;;;;;23.88;32.74;100264.41;5089736;28;20213;-62
2023/09/01 11:32:48;;;;;;;1.00;0.90;;;;;;;23.97;33.29;100260.31;5090377;28;20630;-61
2023/09/01 11:35:24;;;;;;;2.85;0.82;;;;;;;24.18;33.40;100263.38;5090173;28;20663;-61
2023/09/01 11:37:52;;;;;;;0.88;0.70;;;;;;;24.25;32.63;100291.84;5090033;28;20212;-60
2023/09/01 11:40:22;;;;;;;1.00;0.80;;;;;;;23.83;32.93;100261.22;5086974;28;20695;-59